sensor_id;sensor_type;location;lat;lon;timestamp;P1;durP1;ratioP1;P2;durP2;ratioP2
64293;SDS011;50636;45.596;5.258;2023-02-17T00:00:58;29.50;;;20.10;;
64293;SDS011;50636;45.596;5.258;2023-02-17T00:03:26;30.35;;;20.77;;
64293;SDS011;50636;45.596;5.258;2023-02-17T00:05:54;35.33;;;20.08;;
64293;SDS011;50636;45.596;5.258;2023-02-17T00:08:21;32.25;;;19.83;;
64293;SDS011;50636;45.596;5.258;2023-02-17T00:10:57;28.38;;;20.83;;
64293;SDS011;50636;45.596;5.258;2023-02-17T00:13:24;32.80;;;21.30;;
64293;SDS011;50636;45.596;5.258;2023-02-17T00:15:51;30.35;;;20.08;;
64293;SDS011;50636;45.596;5.258;2023-02-17T00:18:18;25.55;;;20.38;;
64293;SDS011;50636;45.596;5.258;2023-02-17T00:20:45;29.95;;;20.30;;
64293;SDS011;50636;45.596;5.258;2023-02-17T00:23:12;30.45;;;18.77;;
64293;SDS011;50636;45.596;5.258;2023-02-17T00:25:39;28.17;;;18.38;;
64293;SDS011;50636;45.596;5.258;2023-02-17T00:28:06;23.52;;;17.33;;
64293;SDS011;50636;45.596;5.258;2023-02-17T00:30:33;24.35;;;17.95;;
64293;SDS011;50636;45.596;5.258;2023-02-17T00:33:04;24.85;;;18.23;;
64293;SDS011;50636;45.596;5.258;2023-02-17T00:35:32;29.88;;;20.20;;
64293;SDS011;50636;45.596;5.258;2023-02-17T00:37:58;27.60;;;18.98;;
64293;SDS011;50636;45.596;5.258;2023-02-17T00:40:25;29.85;;;20.15;;
64293;SDS011;50636;45.596;5.258;2023-02-17T00:42:52;30.02;;;18.60;;
64293;SDS011;50636;45.596;5.258;2023-02-17T00:45:20;26.48;;;17.80;;
64293;SDS011;50636;45.596;5.258;2023-02-17T00:47:49;29.92;;;18.58;;
64293;SDS011;50636;45.596;5.258;2023-02-17T00:50:15;23.42;;;18.60;;
64293;SDS011;50636;45.596;5.258;2023-02-17T00:52:42;28.27;;;19.85;;
64293;SDS011;50636;45.596;5.258;2023-02-17T00:55:09;28.45;;;18.40;;
64293;SDS011;50636;45.596;5.258;2023-02-17T00:57:36;28.63;;;20.00;;
64293;SDS011;50636;45.596;5.258;2023-02-17T01:00:03;25.55;;;19.65;;
64293;SDS011;50636;45.596;5.258;2023-02-17T01:02:31;27.58;;;20.38;;
64293;SDS011;50636;45.596;5.258;2023-02-17T01:04:59;30.42;;;18.33;;
64293;SDS011;50636;45.596;5.258;2023-02-17T01:07:26;28.00;;;18.50;;
64293;SDS011;50636;45.596;5.258;2023-02-17T01:09:53;27.77;;;20.83;;
64293;SDS011;50636;45.596;5.258;2023-02-17T01:12:25;33.70;;;20.90;;
64293;SDS011;50636;45.596;5.258;2023-02-17T01:15:07;28.40;;;19.83;;
64293;SDS011;50636;45.596;5.258;2023-02-17T01:17:51;29.55;;;20.15;;
64293;SDS011;50636;45.596;5.258;2023-02-17T01:20:28;25.42;;;18.20;;
64293;SDS011;50636;45.596;5.258;2023-02-17T01:22:57;26.85;;;19.23;;
64293;SDS011;50636;45.596;5.258;2023-02-17T01:25:24;41.83;;;20.45;;
64293;SDS011;50636;45.596;5.258;2023-02-17T01:30:50;27.42;;;20.23;;
64293;SDS011;50636;45.596;5.258;2023-02-17T01:33:28;28.38;;;19.80;;
64293;SDS011;50636;45.596;5.258;2023-02-17T01:36:03;24.80;;;16.95;;
64293;SDS011;50636;45.596;5.258;2023-02-17T01:38:32;25.92;;;16.80;;
64293;SDS011;50636;45.596;5.258;2023-02-17T01:41:12;25.92;;;19.80;;
64293;SDS011;50636;45.596;5.258;2023-02-17T01:46:57;26.95;;;19.45;;
64293;SDS011;50636;45.596;5.258;2023-02-17T01:52:14;29.00;;;21.40;;
64293;SDS011;50636;45.596;5.258;2023-02-17T01:55:15;26.90;;;19.10;;
64293;SDS011;50636;45.596;5.258;2023-02-17T01:58:18;32.42;;;20.20;;
64293;SDS011;50636;45.596;5.258;2023-02-17T02:00:51;25.95;;;19.05;;
64293;SDS011;50636;45.596;5.258;2023-02-17T02:03:30;26.67;;;19.33;;
64293;SDS011;50636;45.596;5.258;2023-02-17T02:06:09;26.88;;;20.90;;
64293;SDS011;50636;45.596;5.258;2023-02-17T02:09:14;29.80;;;19.23;;
64293;SDS011;50636;45.596;5.258;2023-02-17T02:33:59;25.88;;;18.80;;
64293;SDS011;50636;45.596;5.258;2023-02-17T02:42:56;33.75;;;20.00;;
64293;SDS011;50636;45.596;5.258;2023-02-17T02:45:38;38.85;;;25.33;;
64293;SDS011;50636;45.596;5.258;2023-02-17T02:48:04;30.08;;;19.95;;
64293;SDS011;50636;45.596;5.258;2023-02-17T03:00:24;26.02;;;17.25;;
64293;SDS011;50636;45.596;5.258;2023-02-17T03:06:26;23.75;;;18.02;;
64293;SDS011;50636;45.596;5.258;2023-02-17T03:09:57;24.83;;;18.83;;
64293;SDS011;50636;45.596;5.258;2023-02-17T03:18:16;31.15;;;23.42;;
64293;SDS011;50636;45.596;5.258;2023-02-17T03:24:16;26.33;;;18.65;;
64293;SDS011;50636;45.596;5.258;2023-02-17T03:29:46;25.95;;;19.70;;
64293;SDS011;50636;45.596;5.258;2023-02-17T03:32:29;29.30;;;19.20;;
64293;SDS011;50636;45.596;5.258;2023-02-17T03:34:57;23.52;;;18.27;;
64293;SDS011;50636;45.596;5.258;2023-02-17T03:37:24;23.65;;;17.50;;
64293;SDS011;50636;45.596;5.258;2023-02-17T03:39:52;24.38;;;17.70;;
64293;SDS011;50636;45.596;5.258;2023-02-17T03:42:19;24.05;;;19.77;;
64293;SDS011;50636;45.596;5.258;2023-02-17T03:44:49;22.13;;;17.98;;
64293;SDS011;50636;45.596;5.258;2023-02-17T03:47:29;24.67;;;18.30;;
64293;SDS011;50636;45.596;5.258;2023-02-17T03:52:44;26.85;;;17.42;;
64293;SDS011;50636;45.596;5.258;2023-02-17T03:55:28;26.08;;;16.77;;
64293;SDS011;50636;45.596;5.258;2023-02-17T03:57:54;24.52;;;16.33;;
64293;SDS011;50636;45.596;5.258;2023-02-17T04:00:44;22.55;;;15.63;;
64293;SDS011;50636;45.596;5.258;2023-02-17T04:03:10;24.38;;;17.35;;
64293;SDS011;50636;45.596;5.258;2023-02-17T04:05:36;23.48;;;15.93;;
64293;SDS011;50636;45.596;5.258;2023-02-17T04:11:03;20.95;;;16.75;;
64293;SDS011;50636;45.596;5.258;2023-02-17T04:13:34;23.02;;;15.75;;
64293;SDS011;50636;45.596;5.258;2023-02-17T04:16:01;27.60;;;16.30;;
64293;SDS011;50636;45.596;5.258;2023-02-17T04:19:02;21.33;;;18.00;;
64293;SDS011;50636;45.596;5.258;2023-02-17T04:24:30;23.95;;;17.05;;
64293;SDS011;50636;45.596;5.258;2023-02-17T04:27:04;20.77;;;14.25;;
64293;SDS011;50636;45.596;5.258;2023-02-17T04:29:33;22.35;;;14.10;;
64293;SDS011;50636;45.596;5.258;2023-02-17T04:32:12;24.55;;;15.07;;
64293;SDS011;50636;45.596;5.258;2023-02-17T04:40:28;20.38;;;16.50;;
64293;SDS011;50636;45.596;5.258;2023-02-17T04:43:02;22.90;;;16.98;;
64293;SDS011;50636;45.596;5.258;2023-02-17T04:45:35;23.52;;;18.10;;
64293;SDS011;50636;45.596;5.258;2023-02-17T04:48:12;22.25;;;14.57;;
64293;SDS011;50636;45.596;5.258;2023-02-17T04:50:56;24.08;;;17.17;;
64293;SDS011;50636;45.596;5.258;2023-02-17T04:53:28;20.35;;;15.00;;
64293;SDS011;50636;45.596;5.258;2023-02-17T04:56:10;28.67;;;18.25;;
64293;SDS011;50636;45.596;5.258;2023-02-17T04:58:45;26.40;;;16.40;;
64293;SDS011;50636;45.596;5.258;2023-02-17T05:01:28;25.30;;;17.92;;
64293;SDS011;50636;45.596;5.258;2023-02-17T05:04:01;24.02;;;17.73;;
64293;SDS011;50636;45.596;5.258;2023-02-17T05:06:39;25.08;;;18.38;;
64293;SDS011;50636;45.596;5.258;2023-02-17T05:09:15;22.58;;;18.23;;
64293;SDS011;50636;45.596;5.258;2023-02-17T05:11:41;27.27;;;18.98;;
64293;SDS011;50636;45.596;5.258;2023-02-17T05:14:08;26.55;;;18.27;;
64293;SDS011;50636;45.596;5.258;2023-02-17T05:17:04;25.30;;;18.63;;
64293;SDS011;50636;45.596;5.258;2023-02-17T05:19:35;30.50;;;17.42;;
64293;SDS011;50636;45.596;5.258;2023-02-17T05:22:11;30.98;;;18.08;;
64293;SDS011;50636;45.596;5.258;2023-02-17T05:24:38;25.67;;;18.08;;
64293;SDS011;50636;45.596;5.258;2023-02-17T05:27:07;24.58;;;16.85;;
64293;SDS011;50636;45.596;5.258;2023-02-17T05:29:42;27.25;;;17.77;;
64293;SDS011;50636;45.596;5.258;2023-02-17T05:32:08;23.08;;;18.02;;
64293;SDS011;50636;45.596;5.258;2023-02-17T05:34:37;27.52;;;17.73;;
64293;SDS011;50636;45.596;5.258;2023-02-17T05:37:18;24.58;;;17.45;;
64293;SDS011;50636;45.596;5.258;2023-02-17T05:39:53;27.73;;;17.42;;
64293;SDS011;50636;45.596;5.258;2023-02-17T05:42:19;24.60;;;18.13;;
64293;SDS011;50636;45.596;5.258;2023-02-17T05:47:44;26.98;;;19.42;;
64293;SDS011;50636;45.596;5.258;2023-02-17T05:50:14;25.70;;;19.08;;
64293;SDS011;50636;45.596;5.258;2023-02-17T05:52:45;26.23;;;18.35;;
64293;SDS011;50636;45.596;5.258;2023-02-17T05:55:16;30.00;;;17.63;;
64293;SDS011;50636;45.596;5.258;2023-02-17T05:57:47;23.60;;;17.63;;
64293;SDS011;50636;45.596;5.258;2023-02-17T06:00:13;27.75;;;17.58;;
64293;SDS011;50636;45.596;5.258;2023-02-17T06:02:43;22.38;;;15.43;;
64293;SDS011;50636;45.596;5.258;2023-02-17T06:05:11;31.60;;;15.90;;
64293;SDS011;50636;45.596;5.258;2023-02-17T06:07:41;20.77;;;15.18;;
64293;SDS011;50636;45.596;5.258;2023-02-17T06:10:12;30.83;;;23.42;;
64293;SDS011;50636;45.596;5.258;2023-02-17T06:12:44;29.55;;;20.25;;
64293;SDS011;50636;45.596;5.258;2023-02-17T06:15:24;35.65;;;20.58;;
64293;SDS011;50636;45.596;5.258;2023-02-17T06:18:06;24.60;;;17.13;;
64293;SDS011;50636;45.596;5.258;2023-02-17T06:23:19;32.80;;;19.65;;
64293;SDS011;50636;45.596;5.258;2023-02-17T06:28:34;24.92;;;16.55;;
64293;SDS011;50636;45.596;5.258;2023-02-17T06:31:00;24.25;;;17.08;;
64293;SDS011;50636;45.596;5.258;2023-02-17T06:33:28;30.90;;;14.95;;
64293;SDS011;50636;45.596;5.258;2023-02-17T06:35:56;26.50;;;16.27;;
64293;SDS011;50636;45.596;5.258;2023-02-17T06:38:24;29.73;;;17.85;;
64293;SDS011;50636;45.596;5.258;2023-02-17T06:40:50;25.77;;;18.40;;
64293;SDS011;50636;45.596;5.258;2023-02-17T06:43:18;31.70;;;18.25;;
64293;SDS011;50636;45.596;5.258;2023-02-17T06:45:46;31.95;;;17.90;;
64293;SDS011;50636;45.596;5.258;2023-02-17T06:48:14;35.42;;;18.30;;
64293;SDS011;50636;45.596;5.258;2023-02-17T06:50:41;31.63;;;17.83;;
64293;SDS011;50636;45.596;5.258;2023-02-17T06:53:08;30.23;;;18.67;;
64293;SDS011;50636;45.596;5.258;2023-02-17T06:58:21;34.92;;;18.75;;
64293;SDS011;50636;45.596;5.258;2023-02-17T07:00:49;27.63;;;17.48;;
64293;SDS011;50636;45.596;5.258;2023-02-17T07:03:17;32.75;;;17.90;;
64293;SDS011;50636;45.596;5.258;2023-02-17T07:05:43;31.23;;;17.77;;
64293;SDS011;50636;45.596;5.258;2023-02-17T07:08:17;28.52;;;18.63;;
64293;SDS011;50636;45.596;5.258;2023-02-17T07:10:43;34.40;;;20.17;;
64293;SDS011;50636;45.596;5.258;2023-02-17T07:13:10;29.33;;;17.90;;
64293;SDS011;50636;45.596;5.258;2023-02-17T07:15:37;29.23;;;19.17;;
64293;SDS011;50636;45.596;5.258;2023-02-17T07:18:04;39.15;;;19.38;;
64293;SDS011;50636;45.596;5.258;2023-02-17T07:20:32;38.08;;;17.75;;
64293;SDS011;50636;45.596;5.258;2023-02-17T07:22:59;28.95;;;18.02;;
64293;SDS011;50636;45.596;5.258;2023-02-17T07:25:28;31.00;;;18.98;;
64293;SDS011;50636;45.596;5.258;2023-02-17T07:27:55;30.88;;;18.83;;
64293;SDS011;50636;45.596;5.258;2023-02-17T07:30:22;29.98;;;18.00;;
64293;SDS011;50636;45.596;5.258;2023-02-17T07:32:49;30.98;;;17.25;;
64293;SDS011;50636;45.596;5.258;2023-02-17T07:35:16;23.02;;;16.85;;
64293;SDS011;50636;45.596;5.258;2023-02-17T07:37:45;24.25;;;18.25;;
64293;SDS011;50636;45.596;5.258;2023-02-17T07:40:11;26.17;;;18.05;;
64293;SDS011;50636;45.596;5.258;2023-02-17T07:42:46;24.38;;;17.02;;
64293;SDS011;50636;45.596;5.258;2023-02-17T07:45:12;26.20;;;16.95;;
64293;SDS011;50636;45.596;5.258;2023-02-17T07:47:38;23.60;;;16.63;;
64293;SDS011;50636;45.596;5.258;2023-02-17T07:50:06;29.05;;;16.30;;
64293;SDS011;50636;45.596;5.258;2023-02-17T07:52:34;33.55;;;18.40;;
64293;SDS011;50636;45.596;5.258;2023-02-17T07:55:02;24.85;;;16.65;;
64293;SDS011;50636;45.596;5.258;2023-02-17T07:57:30;23.25;;;17.48;;
64293;SDS011;50636;45.596;5.258;2023-02-17T07:59:57;26.55;;;17.52;;
64293;SDS011;50636;45.596;5.258;2023-02-17T08:02:24;26.38;;;17.02;;
64293;SDS011;50636;45.596;5.258;2023-02-17T08:04:51;31.38;;;17.55;;
64293;SDS011;50636;45.596;5.258;2023-02-17T08:07:18;37.38;;;17.35;;
64293;SDS011;50636;45.596;5.258;2023-02-17T08:09:45;31.17;;;18.35;;
64293;SDS011;50636;45.596;5.258;2023-02-17T08:12:30;32.05;;;17.65;;
64293;SDS011;50636;45.596;5.258;2023-02-17T08:15:15;41.53;;;20.27;;
64293;SDS011;50636;45.596;5.258;2023-02-17T08:17:45;53.83;;;20.23;;
64293;SDS011;50636;45.596;5.258;2023-02-17T08:20:13;32.47;;;18.30;;
64293;SDS011;50636;45.596;5.258;2023-02-17T08:22:43;36.50;;;19.80;;
64293;SDS011;50636;45.596;5.258;2023-02-17T08:25:10;38.25;;;19.45;;
64293;SDS011;50636;45.596;5.258;2023-02-17T08:27:36;40.03;;;19.50;;
64293;SDS011;50636;45.596;5.258;2023-02-17T08:30:03;35.20;;;19.98;;
64293;SDS011;50636;45.596;5.258;2023-02-17T08:32:30;46.03;;;20.95;;
64293;SDS011;50636;45.596;5.258;2023-02-17T08:34:57;34.83;;;20.15;;
64293;SDS011;50636;45.596;5.258;2023-02-17T08:37:26;49.00;;;25.13;;
64293;SDS011;50636;45.596;5.258;2023-02-17T08:39:53;61.30;;;24.27;;
64293;SDS011;50636;45.596;5.258;2023-02-17T08:42:20;47.95;;;25.92;;
64293;SDS011;50636;45.596;5.258;2023-02-17T08:44:47;59.25;;;24.08;;
64293;SDS011;50636;45.596;5.258;2023-02-17T08:47:15;53.17;;;23.60;;
64293;SDS011;50636;45.596;5.258;2023-02-17T08:49:54;90.85;;;26.13;;
64293;SDS011;50636;45.596;5.258;2023-02-17T08:52:29;54.65;;;22.92;;
64293;SDS011;50636;45.596;5.258;2023-02-17T08:54:56;44.10;;;20.52;;
64293;SDS011;50636;45.596;5.258;2023-02-17T08:57:23;65.30;;;22.85;;
64293;SDS011;50636;45.596;5.258;2023-02-17T08:59:51;49.40;;;21.40;;
64293;SDS011;50636;45.596;5.258;2023-02-17T09:02:19;42.55;;;20.50;;
64293;SDS011;50636;45.596;5.258;2023-02-17T09:04:46;52.38;;;23.08;;
64293;SDS011;50636;45.596;5.258;2023-02-17T09:07:13;46.78;;;21.23;;
64293;SDS011;50636;45.596;5.258;2023-02-17T09:09:41;41.05;;;22.30;;
64293;SDS011;50636;45.596;5.258;2023-02-17T09:12:07;58.33;;;21.73;;
64293;SDS011;50636;45.596;5.258;2023-02-17T09:14:47;44.05;;;20.20;;
64293;SDS011;50636;45.596;5.258;2023-02-17T09:17:13;55.55;;;22.15;;
64293;SDS011;50636;45.596;5.258;2023-02-17T09:20:31;46.65;;;20.45;;
64293;SDS011;50636;45.596;5.258;2023-02-17T09:23:09;46.25;;;20.65;;
64293;SDS011;50636;45.596;5.258;2023-02-17T09:25:39;50.08;;;20.50;;
64293;SDS011;50636;45.596;5.258;2023-02-17T09:28:06;30.85;;;19.63;;
64293;SDS011;50636;45.596;5.258;2023-02-17T09:30:45;25.20;;;18.13;;
64293;SDS011;50636;45.596;5.258;2023-02-17T09:33:12;39.65;;;18.67;;
64293;SDS011;50636;45.596;5.258;2023-02-17T09:35:41;40.22;;;18.52;;
64293;SDS011;50636;45.596;5.258;2023-02-17T09:38:21;44.38;;;18.45;;
64293;SDS011;50636;45.596;5.258;2023-02-17T09:40:50;30.75;;;18.67;;
64293;SDS011;50636;45.596;5.258;2023-02-17T09:43:21;39.70;;;19.45;;
64293;SDS011;50636;45.596;5.258;2023-02-17T09:46:05;41.60;;;18.27;;
64293;SDS011;50636;45.596;5.258;2023-02-17T09:50:04;39.38;;;18.05;;
64293;SDS011;50636;45.596;5.258;2023-02-17T09:58:02;39.92;;;17.73;;
64293;SDS011;50636;45.596;5.258;2023-02-17T10:01:10;26.35;;;16.90;;
64293;SDS011;50636;45.596;5.258;2023-02-17T10:10:09;26.70;;;16.13;;
64293;SDS011;50636;45.596;5.258;2023-02-17T10:16:10;23.60;;;16.05;;
64293;SDS011;50636;45.596;5.258;2023-02-17T10:22:30;23.42;;;16.15;;
64293;SDS011;50636;45.596;5.258;2023-02-17T10:24:58;31.65;;;17.75;;
64293;SDS011;50636;45.596;5.258;2023-02-17T10:28:20;32.83;;;17.98;;
64293;SDS011;50636;45.596;5.258;2023-02-17T10:31:10;32.15;;;17.92;;
64293;SDS011;50636;45.596;5.258;2023-02-17T10:39:55;29.65;;;17.63;;
64293;SDS011;50636;45.596;5.258;2023-02-17T10:51:21;20.00;;;12.88;;
64293;SDS011;50636;45.596;5.258;2023-02-17T10:57:24;15.20;;;11.77;;
64293;SDS011;50636;45.596;5.258;2023-02-17T10:59:57;17.35;;;11.85;;
64293;SDS011;50636;45.596;5.258;2023-02-17T11:02:31;19.70;;;12.45;;
64293;SDS011;50636;45.596;5.258;2023-02-17T11:05:05;21.38;;;12.32;;
64293;SDS011;50636;45.596;5.258;2023-02-17T11:07:36;19.15;;;11.95;;
64293;SDS011;50636;45.596;5.258;2023-02-17T11:16:31;28.95;;;14.73;;
64293;SDS011;50636;45.596;5.258;2023-02-17T11:22:40;16.98;;;11.35;;
64293;SDS011;50636;45.596;5.258;2023-02-17T11:25:32;22.08;;;12.15;;
64293;SDS011;50636;45.596;5.258;2023-02-17T11:28:03;19.08;;;12.05;;
64293;SDS011;50636;45.596;5.258;2023-02-17T11:30:33;24.15;;;11.80;;
64293;SDS011;50636;45.596;5.258;2023-02-17T11:33:20;25.75;;;12.07;;
64293;SDS011;50636;45.596;5.258;2023-02-17T11:36:00;24.65;;;12.00;;
64293;SDS011;50636;45.596;5.258;2023-02-17T11:38:31;23.33;;;12.02;;
64293;SDS011;50636;45.596;5.258;2023-02-17T11:41:15;32.85;;;12.40;;
64293;SDS011;50636;45.596;5.258;2023-02-17T11:43:53;22.67;;;12.40;;
64293;SDS011;50636;45.596;5.258;2023-02-17T11:46:59;24.50;;;12.85;;
64293;SDS011;50636;45.596;5.258;2023-02-17T11:55:42;23.98;;;11.15;;
64293;SDS011;50636;45.596;5.258;2023-02-17T12:01:28;18.52;;;10.85;;
64293;SDS011;50636;45.596;5.258;2023-02-17T12:12:54;19.13;;;10.50;;
64293;SDS011;50636;45.596;5.258;2023-02-17T12:36:40;16.83;;;10.17;;
64293;SDS011;50636;45.596;5.258;2023-02-17T12:44:31;17.58;;;10.00;;
64293;SDS011;50636;45.596;5.258;2023-02-17T12:54:14;17.50;;;8.13;;
64293;SDS011;50636;45.596;5.258;2023-02-17T12:57:12;25.50;;;9.48;;
64293;SDS011;50636;45.596;5.258;2023-02-17T12:59:41;34.35;;;9.68;;
64293;SDS011;50636;45.596;5.258;2023-02-17T13:04:44;19.48;;;9.27;;
64293;SDS011;50636;45.596;5.258;2023-02-17T13:16:20;16.05;;;8.93;;
64293;SDS011;50636;45.596;5.258;2023-02-17T13:18:49;13.77;;;7.80;;
64293;SDS011;50636;45.596;5.258;2023-02-17T13:30:26;34.85;;;6.88;;
64293;SDS011;50636;45.596;5.258;2023-02-17T13:33:00;36.25;;;9.23;;
64293;SDS011;50636;45.596;5.258;2023-02-17T13:35:32;18.88;;;5.72;;
64293;SDS011;50636;45.596;5.258;2023-02-17T13:38:01;14.90;;;5.15;;
64293;SDS011;50636;45.596;5.258;2023-02-17T13:42:56;10.88;;;3.45;;
64293;SDS011;50636;45.596;5.258;2023-02-17T13:45:25;21.40;;;4.00;;
64293;SDS011;50636;45.596;5.258;2023-02-17T13:47:58;12.43;;;4.05;;
64293;SDS011;50636;45.596;5.258;2023-02-17T13:51:03;16.77;;;4.15;;
64293;SDS011;50636;45.596;5.258;2023-02-17T13:53:33;15.88;;;3.88;;
64293;SDS011;50636;45.596;5.258;2023-02-17T13:56:04;29.00;;;4.97;;
64293;SDS011;50636;45.596;5.258;2023-02-17T13:58:35;10.00;;;3.63;;
64293;SDS011;50636;45.596;5.258;2023-02-17T14:01:16;12.32;;;4.40;;
64293;SDS011;50636;45.596;5.258;2023-02-17T14:03:50;9.02;;;4.65;;
64293;SDS011;50636;45.596;5.258;2023-02-17T14:06:51;20.33;;;5.32;;
64293;SDS011;50636;45.596;5.258;2023-02-17T14:09:24;13.32;;;4.57;;
64293;SDS011;50636;45.596;5.258;2023-02-17T14:11:53;15.40;;;5.22;;
64293;SDS011;50636;45.596;5.258;2023-02-17T14:14:25;12.88;;;5.07;;
64293;SDS011;50636;45.596;5.258;2023-02-17T14:19:47;19.30;;;5.72;;
64293;SDS011;50636;45.596;5.258;2023-02-17T14:22:25;17.83;;;5.70;;
64293;SDS011;50636;45.596;5.258;2023-02-17T14:24:58;11.63;;;5.82;;
64293;SDS011;50636;45.596;5.258;2023-02-17T14:27:27;16.13;;;6.28;;
64293;SDS011;50636;45.596;5.258;2023-02-17T14:29:53;12.85;;;6.18;;
64293;SDS011;50636;45.596;5.258;2023-02-17T14:32:35;17.48;;;6.47;;
64293;SDS011;50636;45.596;5.258;2023-02-17T14:37:41;19.58;;;6.15;;
64293;SDS011;50636;45.596;5.258;2023-02-17T14:40:16;11.63;;;6.18;;
64293;SDS011;50636;45.596;5.258;2023-02-17T14:42:45;16.17;;;6.55;;
64293;SDS011;50636;45.596;5.258;2023-02-17T14:45:13;11.68;;;6.50;;
64293;SDS011;50636;45.596;5.258;2023-02-17T14:47:42;13.85;;;6.32;;
64293;SDS011;50636;45.596;5.258;2023-02-17T14:50:09;17.77;;;6.45;;
64293;SDS011;50636;45.596;5.258;2023-02-17T14:52:55;9.15;;;5.38;;
64293;SDS011;50636;45.596;5.258;2023-02-17T14:57:51;12.75;;;5.35;;
64293;SDS011;50636;45.596;5.258;2023-02-17T15:00:18;13.07;;;5.40;;
64293;SDS011;50636;45.596;5.258;2023-02-17T15:02:45;13.93;;;5.75;;
64293;SDS011;50636;45.596;5.258;2023-02-17T15:05:13;12.35;;;5.60;;
64293;SDS011;50636;45.596;5.258;2023-02-17T15:07:39;10.90;;;5.82;;
64293;SDS011;50636;45.596;5.258;2023-02-17T15:10:26;12.73;;;5.70;;
64293;SDS011;50636;45.596;5.258;2023-02-17T15:13:13;14.57;;;5.60;;
64293;SDS011;50636;45.596;5.258;2023-02-17T15:16:03;12.75;;;5.22;;
64293;SDS011;50636;45.596;5.258;2023-02-17T15:18:33;21.73;;;5.93;;
64293;SDS011;50636;45.596;5.258;2023-02-17T15:21:01;12.02;;;5.57;;
64293;SDS011;50636;45.596;5.258;2023-02-17T15:23:48;16.50;;;6.07;;
64293;SDS011;50636;45.596;5.258;2023-02-17T15:26:15;13.05;;;5.45;;
64293;SDS011;50636;45.596;5.258;2023-02-17T15:28:44;24.15;;;5.03;;
64293;SDS011;50636;45.596;5.258;2023-02-17T15:31:11;17.35;;;5.47;;
64293;SDS011;50636;45.596;5.258;2023-02-17T15:33:44;13.43;;;5.40;;
64293;SDS011;50636;45.596;5.258;2023-02-17T15:36:19;19.15;;;5.65;;
64293;SDS011;50636;45.596;5.258;2023-02-17T15:38:46;11.50;;;5.05;;
64293;SDS011;50636;45.596;5.258;2023-02-17T15:41:14;22.60;;;4.88;;
64293;SDS011;50636;45.596;5.258;2023-02-17T15:43:43;14.85;;;4.43;;
64293;SDS011;50636;45.596;5.258;2023-02-17T15:46:14;24.75;;;5.80;;
64293;SDS011;50636;45.596;5.258;2023-02-17T15:48:43;14.75;;;4.22;;
64293;SDS011;50636;45.596;5.258;2023-02-17T15:51:13;16.80;;;4.75;;
64293;SDS011;50636;45.596;5.258;2023-02-17T15:53:44;15.55;;;6.18;;
64293;SDS011;50636;45.596;5.258;2023-02-17T15:56:21;18.30;;;4.78;;
64293;SDS011;50636;45.596;5.258;2023-02-17T15:59:27;17.63;;;4.93;;
64293;SDS011;50636;45.596;5.258;2023-02-17T16:01:54;22.67;;;4.78;;
64293;SDS011;50636;45.596;5.258;2023-02-17T16:04:28;18.27;;;4.40;;
64293;SDS011;50636;45.596;5.258;2023-02-17T16:06:55;17.00;;;4.97;;
64293;SDS011;50636;45.596;5.258;2023-02-17T16:09:25;11.80;;;4.32;;
64293;SDS011;50636;45.596;5.258;2023-02-17T16:11:52;19.05;;;4.03;;
64293;SDS011;50636;45.596;5.258;2023-02-17T16:14:23;9.50;;;4.30;;
64293;SDS011;50636;45.596;5.258;2023-02-17T16:17:03;12.75;;;4.55;;
64293;SDS011;50636;45.596;5.258;2023-02-17T16:19:42;21.33;;;4.85;;
64293;SDS011;50636;45.596;5.258;2023-02-17T16:22:09;15.82;;;6.03;;
64293;SDS011;50636;45.596;5.258;2023-02-17T16:24:36;16.60;;;6.40;;
64293;SDS011;50636;45.596;5.258;2023-02-17T16:27:07;14.93;;;7.40;;
64293;SDS011;50636;45.596;5.258;2023-02-17T16:29:53;10.07;;;3.80;;
64293;SDS011;50636;45.596;5.258;2023-02-17T16:32:20;8.90;;;4.13;;
64293;SDS011;50636;45.596;5.258;2023-02-17T16:34:47;7.43;;;3.42;;
64293;SDS011;50636;45.596;5.258;2023-02-17T16:37:14;7.00;;;3.40;;
64293;SDS011;50636;45.596;5.258;2023-02-17T16:39:42;10.07;;;3.65;;
64293;SDS011;50636;45.596;5.258;2023-02-17T16:42:10;12.73;;;4.45;;
64293;SDS011;50636;45.596;5.258;2023-02-17T16:44:39;11.18;;;5.60;;
64293;SDS011;50636;45.596;5.258;2023-02-17T16:47:19;9.55;;;3.60;;
64293;SDS011;50636;45.596;5.258;2023-02-17T16:50:17;7.93;;;3.95;;
64293;SDS011;50636;45.596;5.258;2023-02-17T16:53:11;13.13;;;4.90;;
64293;SDS011;50636;45.596;5.258;2023-02-17T16:55:40;8.68;;;3.70;;
64293;SDS011;50636;45.596;5.258;2023-02-17T16:58:17;13.95;;;4.63;;
64293;SDS011;50636;45.596;5.258;2023-02-17T17:00:49;8.70;;;4.18;;
64293;SDS011;50636;45.596;5.258;2023-02-17T17:03:19;11.50;;;4.18;;
64293;SDS011;50636;45.596;5.258;2023-02-17T17:05:50;12.70;;;4.10;;
64293;SDS011;50636;45.596;5.258;2023-02-17T17:08:18;10.27;;;4.30;;
64293;SDS011;50636;45.596;5.258;2023-02-17T17:10:45;6.22;;;3.90;;
64293;SDS011;50636;45.596;5.258;2023-02-17T17:13:12;8.27;;;4.30;;
64293;SDS011;50636;45.596;5.258;2023-02-17T17:15:42;7.72;;;3.42;;
64293;SDS011;50636;45.596;5.258;2023-02-17T17:18:14;10.93;;;3.50;;
64293;SDS011;50636;45.596;5.258;2023-02-17T17:20:48;8.55;;;3.50;;
64293;SDS011;50636;45.596;5.258;2023-02-17T17:23:15;12.80;;;3.55;;
64293;SDS011;50636;45.596;5.258;2023-02-17T17:25:44;10.05;;;3.47;;
64293;SDS011;50636;45.596;5.258;2023-02-17T17:28:13;15.43;;;4.55;;
64293;SDS011;50636;45.596;5.258;2023-02-17T17:30:41;10.70;;;3.80;;
64293;SDS011;50636;45.596;5.258;2023-02-17T17:33:09;11.95;;;3.88;;
64293;SDS011;50636;45.596;5.258;2023-02-17T17:35:36;15.90;;;4.38;;
64293;SDS011;50636;45.596;5.258;2023-02-17T17:38:03;11.02;;;3.90;;
64293;SDS011;50636;45.596;5.258;2023-02-17T17:40:34;12.80;;;4.15;;
64293;SDS011;50636;45.596;5.258;2023-02-17T17:43:18;11.85;;;4.68;;
64293;SDS011;50636;45.596;5.258;2023-02-17T17:45:47;9.90;;;4.43;;
64293;SDS011;50636;45.596;5.258;2023-02-17T17:48:16;17.90;;;4.00;;
64293;SDS011;50636;45.596;5.258;2023-02-17T17:50:43;8.60;;;4.15;;
64293;SDS011;50636;45.596;5.258;2023-02-17T17:53:11;10.27;;;3.85;;
64293;SDS011;50636;45.596;5.258;2023-02-17T17:55:37;10.63;;;4.40;;
64293;SDS011;50636;45.596;5.258;2023-02-17T17:58:04;12.05;;;4.75;;
64293;SDS011;50636;45.596;5.258;2023-02-17T18:00:31;12.93;;;3.97;;
64293;SDS011;50636;45.596;5.258;2023-02-17T18:02:58;13.00;;;5.15;;
64293;SDS011;50636;45.596;5.258;2023-02-17T18:05:26;14.95;;;4.30;;
64293;SDS011;50636;45.596;5.258;2023-02-17T18:07:53;10.73;;;4.47;;
64293;SDS011;50636;45.596;5.258;2023-02-17T18:10:21;11.10;;;4.60;;
64293;SDS011;50636;45.596;5.258;2023-02-17T18:12:48;8.65;;;4.45;;
64293;SDS011;50636;45.596;5.258;2023-02-17T18:15:15;9.00;;;3.97;;
64293;SDS011;50636;45.596;5.258;2023-02-17T18:17:43;11.20;;;4.90;;
64293;SDS011;50636;45.596;5.258;2023-02-17T18:20:13;12.35;;;4.55;;
64293;SDS011;50636;45.596;5.258;2023-02-17T18:22:40;11.20;;;4.45;;
64293;SDS011;50636;45.596;5.258;2023-02-17T18:25:07;12.02;;;4.90;;
64293;SDS011;50636;45.596;5.258;2023-02-17T18:27:38;15.60;;;8.77;;
64293;SDS011;50636;45.596;5.258;2023-02-17T18:30:07;13.88;;;5.22;;
64293;SDS011;50636;45.596;5.258;2023-02-17T18:32:35;12.73;;;4.70;;
64293;SDS011;50636;45.596;5.258;2023-02-17T18:35:03;15.70;;;4.63;;
64293;SDS011;50636;45.596;5.258;2023-02-17T18:37:31;13.60;;;5.22;;